sensor_id;sensor_type;location;lat;lon;timestamp;P1;durP1;ratioP1;P2;durP2;ratioP2
21181;SDS011;10749;46.296;7.524;2024-01-11T00:00:56;2.10;;;1.53;;
21181;SDS011;10749;46.296;7.524;2024-01-11T00:03:24;2.97;;;1.50;;
21181;SDS011;10749;46.296;7.524;2024-01-11T00:05:49;3.90;;;1.70;;
21181;SDS011;10749;46.296;7.524;2024-01-11T00:08:14;2.70;;;1.63;;
21181;SDS011;10749;46.296;7.524;2024-01-11T00:10:40;2.73;;;1.53;;
21181;SDS011;10749;46.296;7.524;2024-01-11T00:13:05;2.23;;;1.30;;
21181;SDS011;10749;46.296;7.524;2024-01-11T00:15:31;4.97;;;1.40;;
21181;SDS011;10749;46.296;7.524;2024-01-11T00:17:56;1.70;;;1.37;;
21181;SDS011;10749;46.296;7.524;2024-01-11T00:20:21;3.10;;;1.67;;
21181;SDS011;10749;46.296;7.524;2024-01-11T00:22:47;2.10;;;1.27;;
21181;SDS011;10749;46.296;7.524;2024-01-11T00:25:12;2.90;;;1.60;;
21181;SDS011;10749;46.296;7.524;2024-01-11T00:27:37;1.83;;;1.50;;
21181;SDS011;10749;46.296;7.524;2024-01-11T00:30:03;2.30;;;1.60;;
21181;SDS011;10749;46.296;7.524;2024-01-11T00:32:29;2.70;;;1.60;;
21181;SDS011;10749;46.296;7.524;2024-01-11T00:34:54;2.93;;;1.60;;
21181;SDS011;10749;46.296;7.524;2024-01-11T00:37:19;2.50;;;1.70;;
21181;SDS011;10749;46.296;7.524;2024-01-11T00:39:44;3.30;;;1.93;;
21181;SDS011;10749;46.296;7.524;2024-01-11T00:42:10;2.43;;;1.50;;
21181;SDS011;10749;46.296;7.524;2024-01-11T00:44:35;2.77;;;1.50;;
21181;SDS011;10749;46.296;7.524;2024-01-11T00:47:00;2.07;;;1.50;;
21181;SDS011;10749;46.296;7.524;2024-01-11T00:49:25;2.00;;;1.37;;
21181;SDS011;10749;46.296;7.524;2024-01-11T00:51:51;1.53;;;1.20;;
21181;SDS011;10749;46.296;7.524;2024-01-11T00:54:16;1.97;;;1.13;;
21181;SDS011;10749;46.296;7.524;2024-01-11T00:56:41;2.20;;;1.57;;
21181;SDS011;10749;46.296;7.524;2024-01-11T00:59:06;2.50;;;1.30;;
21181;SDS011;10749;46.296;7.524;2024-01-11T01:01:32;2.33;;;1.40;;
21181;SDS011;10749;46.296;7.524;2024-01-11T01:03:57;3.10;;;1.50;;
21181;SDS011;10749;46.296;7.524;2024-01-11T01:06:23;3.40;;;1.37;;
21181;SDS011;10749;46.296;7.524;2024-01-11T01:08:48;2.03;;;1.53;;
21181;SDS011;10749;46.296;7.524;2024-01-11T01:11:13;1.93;;;1.37;;
21181;SDS011;10749;46.296;7.524;2024-01-11T01:13:39;3.03;;;1.63;;
21181;SDS011;10749;46.296;7.524;2024-01-11T01:16:04;3.10;;;1.27;;
21181;SDS011;10749;46.296;7.524;2024-01-11T01:18:30;1.97;;;1.40;;
21181;SDS011;10749;46.296;7.524;2024-01-11T01:20:55;2.03;;;1.30;;
21181;SDS011;10749;46.296;7.524;2024-01-11T01:23:21;1.73;;;1.10;;
21181;SDS011;10749;46.296;7.524;2024-01-11T01:25:46;1.63;;;1.30;;
21181;SDS011;10749;46.296;7.524;2024-01-11T01:28:11;1.97;;;1.30;;
21181;SDS011;10749;46.296;7.524;2024-01-11T01:30:37;1.67;;;1.20;;
21181;SDS011;10749;46.296;7.524;2024-01-11T01:33:02;1.70;;;1.40;;
21181;SDS011;10749;46.296;7.524;2024-01-11T01:35:28;1.70;;;1.20;;
21181;SDS011;10749;46.296;7.524;2024-01-11T01:37:53;1.70;;;1.10;;
21181;SDS011;10749;46.296;7.524;2024-01-11T01:40:18;2.07;;;1.10;;
21181;SDS011;10749;46.296;7.524;2024-01-11T01:42:44;2.53;;;1.40;;
21181;SDS011;10749;46.296;7.524;2024-01-11T01:45:10;2.53;;;1.60;;
21181;SDS011;10749;46.296;7.524;2024-01-11T01:47:36;1.87;;;1.20;;
21181;SDS011;10749;46.296;7.524;2024-01-11T01:50:02;2.37;;;1.17;;
21181;SDS011;10749;46.296;7.524;2024-01-11T01:52:29;1.90;;;1.37;;
21181;SDS011;10749;46.296;7.524;2024-01-11T01:54:54;1.37;;;1.10;;
21181;SDS011;10749;46.296;7.524;2024-01-11T01:57:22;1.83;;;1.40;;
21181;SDS011;10749;46.296;7.524;2024-01-11T01:59:49;2.50;;;1.40;;
21181;SDS011;10749;46.296;7.524;2024-01-11T02:02:16;2.40;;;1.40;;
21181;SDS011;10749;46.296;7.524;2024-01-11T02:04:41;1.97;;;1.33;;
21181;SDS011;10749;46.296;7.524;2024-01-11T02:07:07;2.30;;;1.37;;
21181;SDS011;10749;46.296;7.524;2024-01-11T02:09:32;2.07;;;1.33;;
21181;SDS011;10749;46.296;7.524;2024-01-11T02:11:58;2.87;;;1.20;;
21181;SDS011;10749;46.296;7.524;2024-01-11T02:14:25;2.80;;;1.60;;
21181;SDS011;10749;46.296;7.524;2024-01-11T02:16:51;2.50;;;1.67;;
21181;SDS011;10749;46.296;7.524;2024-01-11T02:19:17;1.93;;;1.33;;
21181;SDS011;10749;46.296;7.524;2024-01-11T02:21:44;2.17;;;1.50;;
21181;SDS011;10749;46.296;7.524;2024-01-11T02:24:13;2.10;;;1.40;;
21181;SDS011;10749;46.296;7.524;2024-01-11T02:26:57;2.47;;;1.00;;
21181;SDS011;10749;46.296;7.524;2024-01-11T02:29:26;2.03;;;1.37;;
21181;SDS011;10749;46.296;7.524;2024-01-11T02:31:52;2.47;;;1.30;;
21181;SDS011;10749;46.296;7.524;2024-01-11T02:34:17;1.60;;;1.30;;
21181;SDS011;10749;46.296;7.524;2024-01-11T02:36:43;2.67;;;1.20;;
21181;SDS011;10749;46.296;7.524;2024-01-11T02:39:09;2.13;;;1.40;;
21181;SDS011;10749;46.296;7.524;2024-01-11T02:41:35;3.13;;;1.63;;
21181;SDS011;10749;46.296;7.524;2024-01-11T02:44:02;2.90;;;1.30;;
21181;SDS011;10749;46.296;7.524;2024-01-11T02:46:27;2.53;;;1.30;;
21181;SDS011;10749;46.296;7.524;2024-01-11T02:48:52;2.57;;;1.37;;
21181;SDS011;10749;46.296;7.524;2024-01-11T02:51:18;2.50;;;1.30;;
21181;SDS011;10749;46.296;7.524;2024-01-11T02:53:43;2.97;;;1.20;;
21181;SDS011;10749;46.296;7.524;2024-01-11T02:56:08;1.80;;;1.10;;
21181;SDS011;10749;46.296;7.524;2024-01-11T02:58:34;1.50;;;1.17;;
21181;SDS011;10749;46.296;7.524;2024-01-11T03:00:59;4.13;;;1.33;;
21181;SDS011;10749;46.296;7.524;2024-01-11T03:03:24;3.67;;;1.60;;
21181;SDS011;10749;46.296;7.524;2024-01-11T03:05:49;1.70;;;1.27;;
21181;SDS011;10749;46.296;7.524;2024-01-11T03:08:15;2.83;;;1.00;;
21181;SDS011;10749;46.296;7.524;2024-01-11T03:10:40;2.37;;;1.27;;
21181;SDS011;10749;46.296;7.524;2024-01-11T03:13:05;2.20;;;1.40;;
21181;SDS011;10749;46.296;7.524;2024-01-11T03:15:31;2.10;;;1.10;;
21181;SDS011;10749;46.296;7.524;2024-01-11T03:17:57;2.03;;;1.13;;
21181;SDS011;10749;46.296;7.524;2024-01-11T03:20:22;1.67;;;1.17;;
21181;SDS011;10749;46.296;7.524;2024-01-11T03:22:49;1.27;;;0.80;;
21181;SDS011;10749;46.296;7.524;2024-01-11T03:25:16;1.43;;;0.90;;
21181;SDS011;10749;46.296;7.524;2024-01-11T03:27:41;1.30;;;0.80;;
21181;SDS011;10749;46.296;7.524;2024-01-11T03:30:07;1.83;;;1.10;;
21181;SDS011;10749;46.296;7.524;2024-01-11T03:32:32;1.83;;;0.93;;
21181;SDS011;10749;46.296;7.524;2024-01-11T03:34:58;1.50;;;1.00;;
21181;SDS011;10749;46.296;7.524;2024-01-11T03:37:23;1.67;;;0.97;;
21181;SDS011;10749;46.296;7.524;2024-01-11T03:39:48;2.00;;;1.00;;
21181;SDS011;10749;46.296;7.524;2024-01-11T03:42:13;2.20;;;1.00;;
21181;SDS011;10749;46.296;7.524;2024-01-11T03:44:39;3.10;;;1.20;;
21181;SDS011;10749;46.296;7.524;2024-01-11T03:47:04;1.97;;;0.90;;
21181;SDS011;10749;46.296;7.524;2024-01-11T03:49:29;2.57;;;1.03;;
21181;SDS011;10749;46.296;7.524;2024-01-11T03:51:55;2.90;;;0.90;;
21181;SDS011;10749;46.296;7.524;2024-01-11T03:54:20;0.77;;;0.60;;
21181;SDS011;10749;46.296;7.524;2024-01-11T03:56:45;1.77;;;1.03;;
21181;SDS011;10749;46.296;7.524;2024-01-11T03:59:10;1.80;;;0.83;;
21181;SDS011;10749;46.296;7.524;2024-01-11T04:01:40;1.77;;;0.87;;
21181;SDS011;10749;46.296;7.524;2024-01-11T04:04:05;2.07;;;1.00;;
21181;SDS011;10749;46.296;7.524;2024-01-11T04:06:31;1.83;;;0.83;;
21181;SDS011;10749;46.296;7.524;2024-01-11T04:08:56;1.53;;;0.90;;
21181;SDS011;10749;46.296;7.524;2024-01-11T04:11:21;1.40;;;0.90;;
21181;SDS011;10749;46.296;7.524;2024-01-11T04:13:47;1.53;;;1.00;;
21181;SDS011;10749;46.296;7.524;2024-01-11T04:16:12;2.20;;;1.00;;
21181;SDS011;10749;46.296;7.524;2024-01-11T04:18:38;2.07;;;1.03;;
21181;SDS011;10749;46.296;7.524;2024-01-11T04:21:03;2.90;;;1.00;;
21181;SDS011;10749;46.296;7.524;2024-01-11T04:23:29;1.20;;;0.83;;
21181;SDS011;10749;46.296;7.524;2024-01-11T04:25:54;2.50;;;1.20;;
21181;SDS011;10749;46.296;7.524;2024-01-11T04:28:20;2.43;;;0.90;;
21181;SDS011;10749;46.296;7.524;2024-01-11T04:30:45;2.30;;;0.90;;
21181;SDS011;10749;46.296;7.524;2024-01-11T04:33:10;1.23;;;0.77;;
21181;SDS011;10749;46.296;7.524;2024-01-11T04:35:36;1.40;;;1.00;;
21181;SDS011;10749;46.296;7.524;2024-01-11T04:38:01;1.53;;;0.97;;
21181;SDS011;10749;46.296;7.524;2024-01-11T04:40:27;1.77;;;1.00;;
21181;SDS011;10749;46.296;7.524;2024-01-11T04:42:52;1.10;;;0.83;;
21181;SDS011;10749;46.296;7.524;2024-01-11T04:45:17;4.00;;;1.07;;
21181;SDS011;10749;46.296;7.524;2024-01-11T04:47:43;1.67;;;1.00;;
21181;SDS011;10749;46.296;7.524;2024-01-11T04:50:08;1.57;;;1.00;;
21181;SDS011;10749;46.296;7.524;2024-01-11T04:52:34;2.13;;;0.90;;
21181;SDS011;10749;46.296;7.524;2024-01-11T04:54:59;5.23;;;3.20;;
21181;SDS011;10749;46.296;7.524;2024-01-11T04:57:24;1.90;;;1.20;;
21181;SDS011;10749;46.296;7.524;2024-01-11T04:59:49;2.60;;;1.70;;
21181;SDS011;10749;46.296;7.524;2024-01-11T05:02:16;1.20;;;0.90;;
21181;SDS011;10749;46.296;7.524;2024-01-11T05:04:41;1.20;;;0.70;;
21181;SDS011;10749;46.296;7.524;2024-01-11T05:07:06;1.20;;;0.80;;
21181;SDS011;10749;46.296;7.524;2024-01-11T05:09:31;1.40;;;0.80;;
21181;SDS011;10749;46.296;7.524;2024-01-11T05:11:57;1.07;;;0.73;;
21181;SDS011;10749;46.296;7.524;2024-01-11T05:14:22;2.07;;;0.73;;
21181;SDS011;10749;46.296;7.524;2024-01-11T05:16:47;1.37;;;0.80;;
21181;SDS011;10749;46.296;7.524;2024-01-11T05:19:12;3.67;;;2.00;;
21181;SDS011;10749;46.296;7.524;2024-01-11T05:21:38;2.33;;;1.70;;
21181;SDS011;10749;46.296;7.524;2024-01-11T05:24:03;2.97;;;2.03;;
21181;SDS011;10749;46.296;7.524;2024-01-11T05:26:28;3.63;;;2.20;;
21181;SDS011;10749;46.296;7.524;2024-01-11T05:28:54;3.27;;;1.83;;
21181;SDS011;10749;46.296;7.524;2024-01-11T05:31:19;3.33;;;1.63;;
21181;SDS011;10749;46.296;7.524;2024-01-11T05:33:44;3.20;;;1.40;;
21181;SDS011;10749;46.296;7.524;2024-01-11T05:36:11;2.00;;;1.33;;
21181;SDS011;10749;46.296;7.524;2024-01-11T05:38:37;2.93;;;1.27;;
21181;SDS011;10749;46.296;7.524;2024-01-11T05:41:03;3.30;;;1.30;;
21181;SDS011;10749;46.296;7.524;2024-01-11T05:43:29;2.40;;;1.43;;
21181;SDS011;10749;46.296;7.524;2024-01-11T05:45:54;2.23;;;1.30;;
21181;SDS011;10749;46.296;7.524;2024-01-11T05:48:19;4.23;;;1.30;;
21181;SDS011;10749;46.296;7.524;2024-01-11T05:50:45;2.40;;;1.60;;
21181;SDS011;10749;46.296;7.524;2024-01-11T05:53:13;5.13;;;1.47;;
21181;SDS011;10749;46.296;7.524;2024-01-11T05:55:39;2.23;;;1.50;;
21181;SDS011;10749;46.296;7.524;2024-01-11T05:58:05;3.90;;;1.57;;
21181;SDS011;10749;46.296;7.524;2024-01-11T06:00:30;4.27;;;2.00;;
21181;SDS011;10749;46.296;7.524;2024-01-11T06:02:56;4.07;;;2.10;;
21181;SDS011;10749;46.296;7.524;2024-01-11T06:05:21;2.20;;;1.50;;
21181;SDS011;10749;46.296;7.524;2024-01-11T06:07:46;3.07;;;1.70;;
21181;SDS011;10749;46.296;7.524;2024-01-11T06:10:12;3.93;;;2.27;;
21181;SDS011;10749;46.296;7.524;2024-01-11T06:12:38;2.07;;;1.50;;
21181;SDS011;10749;46.296;7.524;2024-01-11T06:15:03;3.80;;;1.73;;
21181;SDS011;10749;46.296;7.524;2024-01-11T06:17:29;3.17;;;1.50;;
21181;SDS011;10749;46.296;7.524;2024-01-11T06:19:54;2.70;;;1.70;;
21181;SDS011;10749;46.296;7.524;2024-01-11T06:22:20;2.43;;;1.80;;
21181;SDS011;10749;46.296;7.524;2024-01-11T06:24:45;3.30;;;1.90;;
21181;SDS011;10749;46.296;7.524;2024-01-11T06:27:10;2.73;;;1.90;;
21181;SDS011;10749;46.296;7.524;2024-01-11T06:29:36;5.20;;;2.03;;
21181;SDS011;10749;46.296;7.524;2024-01-11T06:32:01;2.80;;;1.80;;
21181;SDS011;10749;46.296;7.524;2024-01-11T06:34:27;3.30;;;1.70;;
21181;SDS011;10749;46.296;7.524;2024-01-11T06:36:53;3.57;;;1.90;;
21181;SDS011;10749;46.296;7.524;2024-01-11T06:39:19;3.87;;;2.20;;
21181;SDS011;10749;46.296;7.524;2024-01-11T06:41:44;2.73;;;1.47;;
21181;SDS011;10749;46.296;7.524;2024-01-11T06:44:10;2.83;;;1.50;;
21181;SDS011;10749;46.296;7.524;2024-01-11T06:46:35;2.97;;;1.20;;
21181;SDS011;10749;46.296;7.524;2024-01-11T06:49:01;3.50;;;1.50;;
21181;SDS011;10749;46.296;7.524;2024-01-11T06:51:26;4.50;;;1.40;;
21181;SDS011;10749;46.296;7.524;2024-01-11T06:53:52;3.43;;;1.47;;
21181;SDS011;10749;46.296;7.524;2024-01-11T06:56:18;3.33;;;1.40;;
21181;SDS011;10749;46.296;7.524;2024-01-11T06:58:46;5.93;;;2.03;;
21181;SDS011;10749;46.296;7.524;2024-01-11T07:01:11;3.97;;;1.73;;
21181;SDS011;10749;46.296;7.524;2024-01-11T07:03:37;4.37;;;1.50;;
21181;SDS011;10749;46.296;7.524;2024-01-11T07:06:03;3.33;;;1.60;;
21181;SDS011;10749;46.296;7.524;2024-01-11T07:08:28;2.80;;;1.30;;
21181;SDS011;10749;46.296;7.524;2024-01-11T07:10:54;3.40;;;1.40;;
21181;SDS011;10749;46.296;7.524;2024-01-11T07:13:19;5.20;;;1.50;;
21181;SDS011;10749;46.296;7.524;2024-01-11T07:15:45;2.87;;;1.60;;
21181;SDS011;10749;46.296;7.524;2024-01-11T07:18:10;2.00;;;1.37;;
21181;SDS011;10749;46.296;7.524;2024-01-11T07:20:35;2.50;;;1.50;;
21181;SDS011;10749;46.296;7.524;2024-01-11T07:23:01;2.90;;;1.60;;
21181;SDS011;10749;46.296;7.524;2024-01-11T07:25:26;3.43;;;1.27;;
21181;SDS011;10749;46.296;7.524;2024-01-11T07:27:52;2.93;;;1.67;;
21181;SDS011;10749;46.296;7.524;2024-01-11T07:30:17;2.60;;;1.53;;
21181;SDS011;10749;46.296;7.524;2024-01-11T07:32:45;2.57;;;1.60;;
21181;SDS011;10749;46.296;7.524;2024-01-11T07:35:11;2.07;;;1.40;;
21181;SDS011;10749;46.296;7.524;2024-01-11T07:37:37;2.90;;;1.77;;
21181;SDS011;10749;46.296;7.524;2024-01-11T07:40:03;2.73;;;1.73;;
21181;SDS011;10749;46.296;7.524;2024-01-11T07:42:29;2.80;;;1.90;;
21181;SDS011;10749;46.296;7.524;2024-01-11T07:44:54;3.43;;;1.90;;
21181;SDS011;10749;46.296;7.524;2024-01-11T07:47:19;4.60;;;1.70;;
21181;SDS011;10749;46.296;7.524;2024-01-11T07:49:45;3.93;;;1.80;;
21181;SDS011;10749;46.296;7.524;2024-01-11T07:52:10;3.27;;;1.73;;
21181;SDS011;10749;46.296;7.524;2024-01-11T07:54:35;4.37;;;1.87;;
21181;SDS011;10749;46.296;7.524;2024-01-11T07:57:00;3.23;;;1.87;;
21181;SDS011;10749;46.296;7.524;2024-01-11T07:59:28;2.77;;;2.23;;
21181;SDS011;10749;46.296;7.524;2024-01-11T08:01:57;2.77;;;2.00;;
21181;SDS011;10749;46.296;7.524;2024-01-11T08:04:22;4.67;;;2.23;;
21181;SDS011;10749;46.296;7.524;2024-01-11T08:06:48;4.10;;;2.30;;
21181;SDS011;10749;46.296;7.524;2024-01-11T08:09:13;4.00;;;2.50;;
21181;SDS011;10749;46.296;7.524;2024-01-11T08:11:38;3.03;;;2.13;;
21181;SDS011;10749;46.296;7.524;2024-01-11T08:14:04;3.97;;;2.37;;
21181;SDS011;10749;46.296;7.524;2024-01-11T08:16:30;5.13;;;2.47;;
21181;SDS011;10749;46.296;7.524;2024-01-11T08:18:55;4.97;;;2.40;;
21181;SDS011;10749;46.296;7.524;2024-01-11T08:21:21;4.43;;;2.57;;
21181;SDS011;10749;46.296;7.524;2024-01-11T08:23:46;2.90;;;1.83;;
21181;SDS011;10749;46.296;7.524;2024-01-11T08:26:14;3.57;;;2.20;;
21181;SDS011;10749;46.296;7.524;2024-01-11T08:28:40;4.73;;;3.00;;
21181;SDS011;10749;46.296;7.524;2024-01-11T08:31:05;4.87;;;2.80;;
21181;SDS011;10749;46.296;7.524;2024-01-11T08:33:31;4.73;;;3.00;;
21181;SDS011;10749;46.296;7.524;2024-01-11T08:35:56;4.27;;;2.60;;
21181;SDS011;10749;46.296;7.524;2024-01-11T08:38:22;4.53;;;3.00;;
21181;SDS011;10749;46.296;7.524;2024-01-11T08:40:49;4.97;;;3.00;;
21181;SDS011;10749;46.296;7.524;2024-01-11T08:43:14;6.03;;;2.80;;
21181;SDS011;10749;46.296;7.524;2024-01-11T08:45:40;3.67;;;2.27;;
21181;SDS011;10749;46.296;7.524;2024-01-11T08:48:05;4.80;;;2.60;;
21181;SDS011;10749;46.296;7.524;2024-01-11T08:50:30;5.43;;;2.37;;
21181;SDS011;10749;46.296;7.524;2024-01-11T08:52:57;4.20;;;2.70;;
21181;SDS011;10749;46.296;7.524;2024-01-11T08:55:22;4.27;;;3.00;;
21181;SDS011;10749;46.296;7.524;2024-01-11T08:57:48;3.93;;;2.50;;
21181;SDS011;10749;46.296;7.524;2024-01-11T09:00:13;3.17;;;2.23;;
21181;SDS011;10749;46.296;7.524;2024-01-11T09:02:42;4.40;;;2.30;;
21181;SDS011;10749;46.296;7.524;2024-01-11T09:05:08;2.80;;;1.90;;
21181;SDS011;10749;46.296;7.524;2024-01-11T09:07:33;3.63;;;2.10;;
21181;SDS011;10749;46.296;7.524;2024-01-11T09:09:59;2.87;;;2.00;;
21181;SDS011;10749;46.296;7.524;2024-01-11T09:12:24;3.87;;;2.47;;
21181;SDS011;10749;46.296;7.524;2024-01-11T09:14:49;3.13;;;1.80;;
21181;SDS011;10749;46.296;7.524;2024-01-11T09:17:15;2.83;;;1.77;;
21181;SDS011;10749;46.296;7.524;2024-01-11T09:19:40;4.00;;;2.10;;
21181;SDS011;10749;46.296;7.524;2024-01-11T09:22:06;5.23;;;2.23;;
21181;SDS011;10749;46.296;7.524;2024-01-11T09:24:34;3.37;;;1.90;;
21181;SDS011;10749;46.296;7.524;2024-01-11T09:27:00;2.83;;;2.03;;
21181;SDS011;10749;46.296;7.524;2024-01-11T09:29:26;3.07;;;2.07;;
21181;SDS011;10749;46.296;7.524;2024-01-11T09:31:52;3.80;;;2.20;;
21181;SDS011;10749;46.296;7.524;2024-01-11T09:34:18;2.23;;;1.70;;
21181;SDS011;10749;46.296;7.524;2024-01-11T09:36:43;3.70;;;2.03;;
21181;SDS011;10749;46.296;7.524;2024-01-11T09:39:10;3.13;;;2.13;;
21181;SDS011;10749;46.296;7.524;2024-01-11T09:41:38;2.93;;;2.23;;
21181;SDS011;10749;46.296;7.524;2024-01-11T09:44:11;3.23;;;2.23;;
21181;SDS011;10749;46.296;7.524;2024-01-11T09:46:37;2.50;;;2.00;;
21181;SDS011;10749;46.296;7.524;2024-01-11T09:49:02;3.73;;;2.77;;
21181;SDS011;10749;46.296;7.524;2024-01-11T09:51:29;5.93;;;2.70;;
21181;SDS011;10749;46.296;7.524;2024-01-11T09:53:54;4.53;;;2.47;;
21181;SDS011;10749;46.296;7.524;2024-01-11T09:56:23;3.07;;;1.90;;
21181;SDS011;10749;46.296;7.524;2024-01-11T09:58:50;2.40;;;1.70;;
21181;SDS011;10749;46.296;7.524;2024-01-11T10:01:15;3.67;;;2.13;;
21181;SDS011;10749;46.296;7.524;2024-01-11T10:03:42;3.47;;;2.30;;
21181;SDS011;10749;46.296;7.524;2024-01-11T10:06:08;5.23;;;1.83;;
21181;SDS011;10749;46.296;7.524;2024-01-11T10:08:34;2.43;;;1.80;;
21181;SDS011;10749;46.296;7.524;2024-01-11T10:11:00;4.70;;;2.13;;
21181;SDS011;10749;46.296;7.524;2024-01-11T10:13:27;3.30;;;2.50;;
21181;SDS011;10749;46.296;7.524;2024-01-11T10:16:04;3.90;;;2.40;;
21181;SDS011;10749;46.296;7.524;2024-01-11T10:18:34;3.07;;;2.27;;
21181;SDS011;10749;46.296;7.524;2024-01-11T10:21:00;2.83;;;2.20;;
21181;SDS011;10749;46.296;7.524;2024-01-11T10:23:26;2.17;;;1.60;;
21181;SDS011;10749;46.296;7.524;2024-01-11T10:25:53;3.43;;;1.70;;
21181;SDS011;10749;46.296;7.524;2024-01-11T10:28:22;3.50;;;2.60;;
21181;SDS011;10749;46.296;7.524;2024-01-11T10:30:48;3.20;;;2.40;;
21181;SDS011;10749;46.296;7.524;2024-01-11T10:33:18;3.00;;;2.17;;
21181;SDS011;10749;46.296;7.524;2024-01-11T10:35:45;3.13;;;2.23;;
21181;SDS011;10749;46.296;7.524;2024-01-11T10:38:11;4.33;;;2.13;;
21181;SDS011;10749;46.296;7.524;2024-01-11T10:40:36;3.83;;;2.53;;
21181;SDS011;10749;46.296;7.524;2024-01-11T10:43:02;4.30;;;2.47;;
21181;SDS011;10749;46.296;7.524;2024-01-11T10:45:30;3.73;;;2.67;;
21181;SDS011;10749;46.296;7.524;2024-01-11T10:48:03;4.57;;;3.03;;
21181;SDS011;10749;46.296;7.524;2024-01-11T10:50:35;5.40;;;3.20;;
21181;SDS011;10749;46.296;7.524;2024-01-11T10:56:06;6.57;;;3.60;;
21181;SDS011;10749;46.296;7.524;2024-01-11T10:58:33;6.00;;;3.67;;
21181;SDS011;10749;46.296;7.524;2024-01-11T11:01:00;7.07;;;3.73;;
21181;SDS011;10749;46.296;7.524;2024-01-11T11:03:27;6.67;;;3.73;;
21181;SDS011;10749;46.296;7.524;2024-01-11T11:05:54;8.53;;;4.13;;
21181;SDS011;10749;46.296;7.524;2024-01-11T11:08:21;6.10;;;3.50;;
21181;SDS011;10749;46.296;7.524;2024-01-11T11:10:48;7.97;;;3.90;;
21181;SDS011;10749;46.296;7.524;2024-01-11T11:13:14;6.07;;;3.87;;
21181;SDS011;10749;46.296;7.524;2024-01-11T11:15:41;8.50;;;3.60;;
21181;SDS011;10749;46.296;7.524;2024-01-11T11:18:10;4.73;;;3.37;;
21181;SDS011;10749;46.296;7.524;2024-01-11T11:20:37;6.07;;;3.93;;
21181;SDS011;10749;46.296;7.524;2024-01-11T11:23:07;5.10;;;3.23;;
21181;SDS011;10749;46.296;7.524;2024-01-11T11:25:42;4.57;;;3.00;;
21181;SDS011;10749;46.296;7.524;2024-01-11T11:28:07;4.83;;;3.10;;
21181;SDS011;10749;46.296;7.524;2024-01-11T11:30:33;4.17;;;2.93;;
21181;SDS011;10749;46.296;7.524;2024-01-11T11:33:18;4.37;;;2.90;;
21181;SDS011;10749;46.296;7.524;2024-01-11T11:35:46;5.93;;;2.90;;
21181;SDS011;10749;46.296;7.524;2024-01-11T11:38:17;7.50;;;3.40;;
21181;SDS011;10749;46.296;7.524;2024-01-11T11:40:47;5.57;;;2.97;;
21181;SDS011;10749;46.296;7.524;2024-01-11T11:43:15;4.23;;;2.87;;
21181;SDS011;10749;46.296;7.524;2024-01-11T11:45:42;6.37;;;2.87;;
21181;SDS011;10749;46.296;7.524;2024-01-11T11:49:07;5.90;;;2.80;;
21181;SDS011;10749;46.296;7.524;2024-01-11T11:51:11;4.33;;;2.57;;
21181;SDS011;10749;46.296;7.524;2024-01-11T11:53:37;3.43;;;2.17;;
21181;SDS011;10749;46.296;7.524;2024-01-11T11:56:04;4.53;;;2.00;;
21181;SDS011;10749;46.296;7.524;2024-01-11T11:58:30;3.00;;;1.80;;
21181;SDS011;10749;46.296;7.524;2024-01-11T12:00:57;2.73;;;1.80;;
21181;SDS011;10749;46.296;7.524;2024-01-11T12:03:36;2.20;;;1.60;;
21181;SDS011;10749;46.296;7.524;2024-01-11T12:06:04;2.40;;;1.80;;
21181;SDS011;10749;46.296;7.524;2024-01-11T12:08:31;2.63;;;1.90;;
21181;SDS011;10749;46.296;7.524;2024-01-11T12:10:57;3.47;;;1.80;;
21181;SDS011;10749;46.296;7.524;2024-01-11T12:13:23;3.57;;;1.97;;
21181;SDS011;10749;46.296;7.524;2024-01-11T12:15:49;3.07;;;1.90;;
21181;SDS011;10749;46.296;7.524;2024-01-11T12:18:15;4.50;;;2.03;;
21181;SDS011;10749;46.296;7.524;2024-01-11T12:20:40;4.03;;;1.80;;
21181;SDS011;10749;46.296;7.524;2024-01-11T12:23:05;2.37;;;1.63;;
21181;SDS011;10749;46.296;7.524;2024-01-11T12:25:31;2.47;;;1.60;;
21181;SDS011;10749;46.296;7.524;2024-01-11T12:27:56;3.27;;;1.83;;
21181;SDS011;10749;46.296;7.524;2024-01-11T12:30:22;2.23;;;1.70;;
21181;SDS011;10749;46.296;7.524;2024-01-11T12:32:48;3.53;;;1.63;;
21181;SDS011;10749;46.296;7.524;2024-01-11T12:35:14;3.07;;;1.70;;
21181;SDS011;10749;46.296;7.524;2024-01-11T12:37:40;2.07;;;1.43;;
21181;SDS011;10749;46.296;7.524;2024-01-11T12:40:06;2.27;;;1.53;;
21181;SDS011;10749;46.296;7.524;2024-01-11T12:42:35;2.33;;;1.50;;
21181;SDS011;10749;46.296;7.524;2024-01-11T12:45:00;2.03;;;1.37;;
21181;SDS011;10749;46.296;7.524;2024-01-11T12:47:26;2.77;;;1.70;;
21181;SDS011;10749;46.296;7.524;2024-01-11T12:49:51;2.10;;;1.70;;
21181;SDS011;10749;46.296;7.524;2024-01-11T12:52:17;2.40;;;1.50;;
21181;SDS011;10749;46.296;7.524;2024-01-11T12:54:44;1.90;;;1.30;;
21181;SDS011;10749;46.296;7.524;2024-01-11T12:57:20;2.23;;;1.40;;
21181;SDS011;10749;46.296;7.524;2024-01-11T12:59:46;2.70;;;1.20;;
21181;SDS011;10749;46.296;7.524;2024-01-11T13:02:11;2.33;;;1.50;;
21181;SDS011;10749;46.296;7.524;2024-01-11T13:04:39;3.43;;;1.80;;
21181;SDS011;10749;46.296;7.524;2024-01-11T13:07:05;2.67;;;1.20;;
21181;SDS011;10749;46.296;7.524;2024-01-11T13:09:32;2.93;;;1.00;;
21181;SDS011;10749;46.296;7.524;2024-01-11T13:11:57;1.87;;;1.10;;
21181;SDS011;10749;46.296;7.524;2024-01-11T13:14:23;1.93;;;1.20;;
21181;SDS011;10749;46.296;7.524;2024-01-11T13:16:48;2.17;;;1.10;;
21181;SDS011;10749;46.296;7.524;2024-01-11T13:19:14;3.07;;;1.20;;
21181;SDS011;10749;46.296;7.524;2024-01-11T13:21:39;1.97;;;1.30;;
21181;SDS011;10749;46.296;7.524;2024-01-11T13:24:05;1.93;;;1.13;;
21181;SDS011;10749;46.296;7.524;2024-01-11T13:26:32;2.07;;;1.50;;
21181;SDS011;10749;46.296;7.524;2024-01-11T13:28:58;1.93;;;1.60;;
21181;SDS011;10749;46.296;7.524;2024-01-11T13:31:23;2.73;;;1.80;;
21181;SDS011;10749;46.296;7.524;2024-01-11T13:33:48;3.83;;;1.90;;
21181;SDS011;10749;46.296;7.524;2024-01-11T13:36:14;3.40;;;2.10;;
21181;SDS011;10749;46.296;7.524;2024-01-11T13:38:39;4.53;;;2.20;;
21181;SDS011;10749;46.296;7.524;2024-01-11T13:41:05;2.90;;;1.60;;
21181;SDS011;10749;46.296;7.524;2024-01-11T13:43:32;4.23;;;2.10;;
21181;SDS011;10749;46.296;7.524;2024-01-11T13:45:58;2.67;;;1.90;;
21181;SDS011;10749;46.296;7.524;2024-01-11T13:48:23;2.07;;;1.80;;
21181;SDS011;10749;46.296;7.524;2024-01-11T13:50:49;4.67;;;1.93;;
21181;SDS011;10749;46.296;7.524;2024-01-11T13:53:14;2.27;;;1.70;;
21181;SDS011;10749;46.296;7.524;2024-01-11T13:55:40;3.53;;;1.80;;
21181;SDS011;10749;46.296;7.524;2024-01-11T13:58:05;4.13;;;2.07;;
21181;SDS011;10749;46.296;7.524;2024-01-11T14:00:30;4.83;;;1.87;;
21181;SDS011;10749;46.296;7.524;2024-01-11T14:02:56;2.30;;;1.70;;
21181;SDS011;10749;46.296;7.524;2024-01-11T14:05:21;3.60;;;1.93;;
21181;SDS011;10749;46.296;7.524;2024-01-11T14:07:46;4.43;;;2.00;;
21181;SDS011;10749;46.296;7.524;2024-01-11T14:10:13;2.60;;;1.63;;
21181;SDS011;10749;46.296;7.524;2024-01-11T14:12:40;2.60;;;2.00;;
21181;SDS011;10749;46.296;7.524;2024-01-11T14:15:07;4.83;;;2.40;;
21181;SDS011;10749;46.296;7.524;2024-01-11T14:17:36;3.40;;;1.90;;
21181;SDS011;10749;46.296;7.524;2024-01-11T14:20:03;2.67;;;1.80;;
21181;SDS011;10749;46.296;7.524;2024-01-11T14:22:31;2.83;;;2.20;;
21181;SDS011;10749;46.296;7.524;2024-01-11T14:24:56;3.90;;;2.37;;
21181;SDS011;10749;46.296;7.524;2024-01-11T14:27:22;3.90;;;2.50;;
21181;SDS011;10749;46.296;7.524;2024-01-11T14:29:48;4.57;;;2.33;;
21181;SDS011;10749;46.296;7.524;2024-01-11T14:32:14;3.57;;;2.23;;
21181;SDS011;10749;46.296;7.524;2024-01-11T14:34:42;6.53;;;2.90;;
21181;SDS011;10749;46.296;7.524;2024-01-11T14:37:09;5.53;;;3.10;;
21181;SDS011;10749;46.296;7.524;2024-01-11T14:39:35;6.83;;;3.23;;
21181;SDS011;10749;46.296;7.524;2024-01-11T14:42:00;6.77;;;3.63;;
21181;SDS011;10749;46.296;7.524;2024-01-11T14:44:25;7.73;;;4.23;;